Tiempo atmosférico en la estación meteorológica de Navasfrías, Salamanca (880 m.)



Fecha
DESCASC
Temp. máxima en grados centígrados (hora)
DESCASC
Temp. mínima en grados centígrados (hora)
DESCASC
Temp. media en grados centígrados
DESCASC
Racha de viento máxima en m/sg (hora)
DESCASC
Velocidad máxima media en intervalos de 10 minutos(hora)
DESCASC
Precipitaciones diarias en mm
DESCASC
Precipitaciones de 00:00 a 06:00 en mm
DESCASC
Precipitaciones de 06:00 a 12:00 en mm
DESCASC
Precipitaciones de 12:00 a 18:00 en mm
DESCASC
Precipitaciones de 18:00 a 24:00 en mm
DESCASC
11-12-2019 8.3 (08:30) -1.2 (00:00) 3.6 11.11 (13:40) 5.56 (13:40) 0.8 0 0.8 0 0
08-12-2019 13.1 (13:30) -1.4 (-00:0) 5.9 4.17 (13:40) 2.5 (13:40) 2 0 0 2 0
07-12-2019 13.7 (15:20) -2.2 (-00:0) 5.7 4.17 (14:30) 2.22 (14:20) 0 0 0 0 0
06-12-2019 11.1 (15:40) -3 (-00:0) 4.1 3.89 (14:20) 1.67 (14:00) 0 0 0 0 0
05-12-2019 9.6 (15:10) -1.3 (-00:0) 4.2 6.39 (15:40) 3.33 (15:50) 0 0 0 0 0
04-12-2019 7.5 (15:20) -3.1 (08:10) 2.2 6.94 (15:30) 3.33 (15:30) 0 0 0 0 0
03-12-2019 6.3 (15:40) -2.3 (-00:0) 2 5 (13:10) 1.67 (13:20) 0 0 0 0 0
02-12-2019 8.9 (15:00) 1.2 (00:00) 5 10.28 (14:00) 3.33 (13:50) 0 0 0 0 0
01-12-2019 8.7 (12:40) 0.6 (00:00) 4.6 10.28 (04:30) 4.17 (03:30) 0 0 0 0 0
30-11-2019 11.9 (13:10) 0.8 (00:00) 6.3 11.11 (14:30) 5.83 (09:40) 0 0 0 0 0
29-11-2019 13.6 (14:20) 10.6 (00:00) 12.1 10.28 (01:00) 5.28 (01:00) 1.2 0.4 0.8 0 0
28-11-2019 11 (15:40) 7.9 (00:00) 9.5 11.39 (22:10) 5.83 (19:20) 1 0 0.6 0.2 0.2
27-11-2019 10.6 (14:00) 2.6 (00:00) 6.6 7.22 (23:40) 3.61 (14:00) 0 0 0 0 0
26-11-2019 12.4 (14:40) 9.2 (00:00) 10.8 13.61 (13:40) 7.22 (14:00) 32.2 0.4 12 17.4 2.4
25-11-2019 13.7 (14:50) 7.2 (08:50) 10.4 7.22 (00:20) 3.89 (00:20) 1 1 0 0 0
24-11-2019 9.3 (23:20) -2 (-00:0) 3.7 8.33 (20:10) 4.44 (20:00) 1.2 0 0 0 1.2
23-11-2019 9.3 (16:00) 4.1 (00:00) 6.7 12.22 (11:50) 6.67 (04:20) 0.6 0.6 0 0 0
22-11-2019 11.2 (13:50) 6.2 (00:00) 8.7 14.72 (09:10) 6.94 (09:10) 37.4 10.8 23.8 1.2 1.6
21-11-2019 9.8 (15:10) 4.8 (00:00) 7.3 8.06 (04:50) 3.89 (04:40) 3 1.8 0 0 1.2
20-11-2019 5.9 (16:00) 3.3 (08:40) 4.6 8.33 (12:00) 3.89 (12:00) 7 1.2 5.6 0.2 0
19-11-2019 8.7 (13:40) -4.5 (-00:0) 2.1 5 (14:20) 2.22 (12:20) 0 0 0 0 0
18-11-2019 9.3 (15:20) -2.6 (-00:0) 3.4 5.83 (00:20) 2.78 (12:50) 0 0 0 0 0
17-11-2019 10.9 (13:20) -0.7 (-00:0) 5.1 8.06 (20:00) 3.89 (20:00) 1.2 0 0 1 0.2
16-11-2019 7.1 (16:40) -2.2 (-00:0) 2.4 6.67 (16:20) 3.61 (16:30) 0 0 0 0 0
15-11-2019 5.9 (13:50) 0.5 (00:00) 3.2 11.11 (13:30) 5 (15:40) 0 0 0 0 0

Gráficas

Temp. máximas Temp. mínimas Temp. medias Precipitaciones Rachas de viento máximas Velocidades máximas media en intervalos de 10 minutos

Datos horarios

Fecha y hora oficial Temperatura (ºC) Velocidad del viento (km/h) Dirección del viento Racha (km/h) Dirección de racha Precipitación (mm) Presión (hPa) Tendencia (hPa) Humedad (%)
2019-12-14 23:00:00 8.4 8 Sudoeste 21 Sur 0 -- -- 96
2019-12-14 22:00:00 8.3 5 Sur 22 Sur 0 -- -- 96
2019-12-14 21:00:00 8.2 9 Sudoeste 21 Sudoeste 0 -- -- 99
2019-12-14 20:00:00 8.3 7 Sudoeste 18 Sur 0 -- -- 97
2019-12-14 19:00:00 8.2 5 Sudoeste 18 Sur 0 -- -- 96
2019-12-14 18:00:00 8.3 3 Sur 13 Sudoeste 0 -- -- 93
2019-12-14 17:00:00 8.7 5 Sudoeste 14 Sur 0 -- -- 95
2019-12-14 16:00:00 8.8 7 Sudoeste 17 Sudoeste 0 -- -- 93
2019-12-14 15:00:00 8.7 5 Sur 14 Sur 0 -- -- 94
2019-12-14 14:00:00 8.7 7 Sudoeste 19 Sur 0 -- -- 91
2019-12-14 13:00:00 9.8 6 Sudoeste 18 Sudoeste 0 -- -- 82
2019-12-14 12:00:00 10 6 Sudoeste 15 Oeste 0 -- -- 83
2019-12-14 11:00:00 9.4 7 Sudoeste 15 Sudoeste 0 -- -- 85
2019-12-14 10:00:00 7 0 Calma 4 Sur 0 -- -- 96
2019-12-14 09:00:00 6 3 Sur 8 Sur 0 -- -- 96
2019-12-14 08:00:00 6.7 2 Oeste 10 Sudoeste 0 -- -- 96
2019-12-14 07:00:00 5.4 4 Sudoeste 12 Sudoeste 0 -- -- 100
2019-12-14 06:00:00 3.7 2 Sur 5 Sudoeste 0 -- -- 97
2019-12-14 05:00:00 4.1 0 Calma 6 Sur 0 -- -- 94
2019-12-14 04:00:00 6.3 2 Sudeste 8 Oeste 0 -- -- 92
2019-12-14 03:00:00 7.1 0 Calma 17 Noroeste 0 -- -- 88
2019-12-14 02:00:00 6.4 4 Oeste 16 Noroeste 0 -- -- 93
2019-12-14 01:00:00 7.5 5 Noroeste 15 Sur 0 -- -- 88
2019-12-14 00:00:00 7.2 2 Sudoeste 12 Noroeste 0 -- -- 90
2019-12-13 23:00:00 8.5 4 Sudoeste 20 Noroeste 0 -- -- 87
2019-12-13 22:00:00 9 5 Noroeste 15 Sur 0 -- -- 87
2019-12-13 21:00:00 9.2 3 Sur 18 Oeste 0 -- -- 88
2019-12-13 20:00:00 10 12 Noroeste 25 Oeste 0 -- -- 82
2019-12-13 19:00:00 10.3 7 Noroeste 13 Oeste 0 -- -- 85
2019-12-13 18:00:00 10.8 4 Oeste 15 Sudoeste 0 -- -- 85
2019-12-13 17:00:00 11.2 5 Oeste 30 Oeste 0 -- -- 83
2019-12-13 16:00:00 11.4 10 Noroeste 26 Norte 0 -- -- 83
2019-12-13 15:00:00 12.1 12 Noroeste 25 Noroeste 0 -- -- 80
2019-12-13 14:00:00 11.9 10 Oeste 25 Oeste 0 -- -- 80
2019-12-13 13:00:00 11.5 5 Oeste 21 Oeste 0 -- -- 84
2019-12-13 12:00:00 11.1 14 Oeste 26 Oeste 0 -- -- 85
2019-12-13 11:00:00 10.1 8 Noroeste 26 Noroeste 0 -- -- 87
2019-12-13 10:00:00 9.8 12 Oeste 22 Noroeste 0 -- -- 85
2019-12-13 09:00:00 9.7 6 Oeste 26 Oeste 0 -- -- 83
2019-12-13 08:00:00 9.8 16 Noroeste 39 Noroeste 0 -- -- 86
2019-12-13 07:00:00 9.7 12 Noroeste 37 Noroeste 0 -- -- 89
2019-12-13 06:00:00 9.6 13 Noroeste 35 Norte 0 -- -- 88
2019-12-13 05:00:00 9.7 17 Noroeste 39 Noroeste 0 -- -- 84
2019-12-13 04:00:00 10.3 15 Oeste 36 Noroeste 0 -- -- 87
2019-12-13 03:00:00 10.4 14 Noroeste 43 Oeste 0 -- -- 91
2019-12-13 02:00:00 10.5 8 Noroeste 34 Noroeste 0 -- -- 92
2019-12-13 01:00:00 10.7 14 Noroeste 48 Oeste 0 -- -- 90
2019-12-13 00:00:00 10.7 16 Noroeste 39 Oeste 0 -- -- 91
2019-12-12 23:00:00 11 21 Oeste 42 Oeste 0 -- -- 89
2019-12-12 22:00:00 10.7 16 Noroeste 34 Noroeste 0 -- -- 91
2019-12-12 21:00:00 10.5 17 Noroeste 31 Oeste 0 -- -- 93
2019-12-12 20:00:00 10.1 12 Oeste 27 Oeste 0 -- -- 93
2019-12-12 19:00:00 9.4 13 Oeste 26 Oeste 0 -- -- 95
2019-12-12 18:00:00 8.4 5 Sudoeste 18 Oeste 0 -- -- 98
2019-12-12 17:00:00 7.1 5 Sudoeste 15 Sur 0 -- -- 99
2019-12-12 16:00:00 7 9 Sur 19 Sudoeste 0 -- -- 98
2019-12-12 15:00:00 7.4 6 Sudoeste 15 Oeste 0 -- -- 98
2019-12-12 14:00:00 6.9 6 Sudoeste 17 Sudoeste 0.2 -- -- 98
2019-12-12 13:00:00 6.3 4 Oeste 15 Sudoeste 0 -- -- 100
2019-12-12 12:00:00 5.6 9 Sudoeste 25 Sudoeste 0.2 -- -- 100
2019-12-12 11:00:00 5.3 5 Sudoeste 21 Sur 0.2 -- -- 99
2019-12-12 10:00:00 5.2 5 Sudoeste 14 Sur 0.2 -- -- 99
2019-12-12 09:00:00 4.7 5 Sur 12 Sur 0 -- -- 99
2019-12-12 08:00:00 4.5 2 Sur 11 Sudoeste 0 -- -- 99
2019-12-12 07:00:00 3.7 4 Sur 9 Sur 0 -- -- 98
2019-12-12 06:00:00 3.8 3 Sur 8 Oeste 0 -- -- 96
2019-12-12 05:00:00 1.6 2 Oeste 7 Oeste 0 -- -- 100
2019-12-12 04:00:00 0.6 2 Sur 4 Sur 0 -- -- 100
2019-12-12 03:00:00 0.5 2 Sur 3 Sur 0 -- -- 99
2019-12-12 02:00:00 1.1 0 Calma 4 Sur 0 -- -- 98
2019-12-12 01:00:00 1.5 0 Calma 3 Oeste 0 -- -- 96
2019-12-12 00:00:00 2.7 0 Calma 13 Noroeste 0 -- -- 96
2019-12-11 23:00:00 2.6 5 Noroeste 10 Noroeste 0 -- -- 99
2019-12-11 22:00:00 0.5 0 Calma 5 Sudeste 0 -- -- 96
2019-12-11 21:00:00 1.9 0 Calma 8 Noroeste 0 -- -- 89
2019-12-11 20:00:00 3.7 5 Norte 12 Norte 0 -- -- 83
2019-12-11 19:00:00 4.2 5 Norte 15 Norte 0 -- -- 77
2019-12-11 18:00:00 5.5 10 Norte 31 Norte 0 -- -- 71
2019-12-11 17:00:00 6.9 14 Norte 35 Noroeste 0 -- -- 62
2019-12-11 16:00:00 7.7 16 Norte 33 Norte 0 -- -- 63
2019-12-11 15:00:00 7.6 16 Norte 36 Norte 0 -- -- 64
2019-12-11 14:00:00 7.4 17 Norte 40 Norte 0 -- -- 67
2019-12-11 13:00:00 7 17 Norte 37 Norte 0 -- -- 78
2019-12-11 12:00:00 6.3 14 Norte 32 Norte 0 -- -- 90
2019-12-11 11:00:00 6.1 10 Norte 31 Norte 0 -- -- 94
2019-12-11 10:00:00 7 9 Norte 23 Noroeste 0 -- -- 98
2019-12-11 09:00:00 7.6 8 Noroeste 25 Noroeste 0.8 -- -- 96
2019-12-11 08:00:00 8 4 Sudoeste 18 Oeste 0 -- -- 94
2019-12-11 07:00:00 7.4 6 Oeste 18 Oeste 0 -- -- 90
2019-12-11 06:00:00 2.3 3 Sudeste 8 Sudeste 0 -- -- 92
2019-12-11 05:00:00 -0.5 3 Sur 6 Sur 0 -- -- 96
2019-12-11 04:00:00 -0.8 2 Sudoeste 5 Sudoeste 0 -- -- 96
2019-12-11 03:00:00 -1.2 2 Sur 4 Sur 0 -- -- 94
2019-12-11 02:00:00 -0.5 3 Sudoeste 4 Sur 0 -- -- 93
2019-12-11 01:00:00 0.1 0 Calma 4 Sur 0 -- -- 96
2019-12-11 00:00:00 -1.2 2 Sudoeste 3 Sudoeste 0 -- -- 95
2019-12-10 23:00:00 -0.5 3 Sur 4 Sur 0 -- -- 94
2019-12-10 22:00:00 0.6 0 Calma 4 Sur 0 -- -- 93
2019-12-10 21:00:00 2.2 2 Sur 4 Sur 0 -- -- 88
2019-12-10 20:00:00 4.6 2 Sur 4 Sur 0 -- -- 88
2019-12-10 19:00:00 6.5 0 Calma 4 Sur 0 -- -- 86
2019-12-10 18:00:00 9.3 2 Sudoeste 4 Sur 0 -- -- 80
2019-12-10 17:00:00 12.5 0 Calma 2 Sudeste 0 -- -- 66
2019-12-10 16:00:00 12.5 0 Calma 2 Sudeste 0 -- -- 63
2019-12-10 15:00:00 12.8 0 Calma 5 Nordeste 0 -- -- 50
2019-12-10 14:00:00 12.8 3 Norte 8 Norte 0 -- -- 47
2019-12-10 13:00:00 9.9 0 Calma 2 Nordeste 0 -- -- 80
2019-12-10 12:00:00 6.2 0 Calma 0 Calma 0 -- -- 89
2019-12-10 11:00:00 2.9 0 Calma 2 Sur 0 -- -- 99
2019-12-10 10:00:00 -0.2 0 Calma 2 Sur 0 -- -- 100
2019-12-10 09:00:00 -3.1 0 Calma 3 Sur 0 -- -- 100
2019-12-10 08:00:00 -3.1 2 Sur 3 Sudoeste 0 -- -- 99
2019-12-10 07:00:00 -3.1 2 Sudoeste 4 Sudoeste 0 -- -- 99
2019-12-10 06:00:00 -2.6 0 Calma 3 Sur 0 -- -- 99
2019-12-10 05:00:00 -2.7 2 Sur 3 Sur 0 -- -- 99
2019-12-10 04:00:00 -2.4 2 Sudoeste 3 Sur 0 -- -- 98
2019-12-10 03:00:00 -2.1 0 Calma 4 Sur 0 -- -- 98
2019-12-10 02:00:00 -1.5 0 Calma 3 Sur 0 -- -- 98
2019-12-10 01:00:00 -1 0 Calma 4 Sur 0 -- -- 96
2019-12-10 00:00:00 -0.1 2 Sur 4 Sur 0 -- -- 94
2019-12-09 23:00:00 1 2 Sur 4 Sur 0 -- -- 92
2019-12-09 22:00:00 3.4 2 Sur 3 Sur 0 -- -- 89
2019-12-09 21:00:00 4.7 0 Calma 3 Sur 0 -- -- 87
2019-12-09 20:00:00 5.8 2 Sur 4 Sur 0 -- -- 83
2019-12-09 19:00:00 7 2 Sur 4 Sur 0 -- -- 78
2019-12-09 18:00:00 9.5 0 Calma 7 Norte 0 -- -- 62
2019-12-09 17:00:00 11.8 5 Norte 10 Norte 0 -- -- 45
2019-12-09 16:00:00 11.6 2 Noroeste 9 Norte 0 -- -- 50
2019-12-09 15:00:00 12.1 6 Norte 17 Nordeste 0 -- -- 45
2019-12-09 14:00:00 11.8 5 Norte 15 Norte 0 -- -- 49
2019-12-09 13:00:00 10.9 6 Norte 15 Norte 0 -- -- 48
2019-12-09 12:00:00 10.3 3 Nordeste 9 Norte 0 -- -- 56
2019-12-09 11:00:00 6.2 0 Calma 5 Sur 0 -- -- 95
2019-12-09 10:00:00 2.3 0 Calma 5 Sudoeste 0 -- -- 100
2019-12-09 09:00:00 2.3 4 Sudoeste 8 Sudoeste 0 -- -- 100
2019-12-09 08:00:00 3.7 2 Sudoeste 4 Sur 0 -- -- 100
2019-12-09 07:00:00 4.2 0 Calma 3 Sudoeste 0 -- -- 100
2019-12-09 06:00:00 4.4 0 Calma 4 Sur 0 -- -- 100
2019-12-09 05:00:00 5.9 0 Calma 5 Nordeste 0 -- -- 96
2019-12-09 04:00:00 7.5 2 Nordeste 13 Norte 0 -- -- 97
2019-12-09 03:00:00 7.9 5 Norte 21 Norte 0 -- -- 98
2019-12-09 02:00:00 8.3 10 Norte 22 Norte 0 -- -- 99
2019-12-09 01:00:00 8.8 2 Norte 10 Norte 0 -- -- 100
2019-12-09 00:00:00 9.4 5 Norte 15 Norte 0 -- -- 100
2019-12-08 23:00:00 9.9 4 Norte 12 Noroeste 0 -- -- 99
2019-12-08 22:00:00 10.9 4 Norte 13 Noroeste 0 -- -- 100
2019-12-08 21:00:00 10.9 0 Calma 10 Noroeste 0 -- -- 100
2019-12-08 20:00:00 10.9 2 Norte 5 Oeste 0 -- -- 99
2019-12-08 19:00:00 11.4 0 Calma 8 Oeste 0 -- -- 98
2019-12-08 18:00:00 11.2 0 Calma 2 Oeste 0 -- -- 99
2019-12-08 17:00:00 11.6 0 Calma 3 Nordeste 0 -- -- 98
2019-12-08 16:00:00 11.6 0 Calma 4 Norte 0.2 -- -- 98
2019-12-08 15:00:00 11.4 2 Norte 6 Nordeste 1.8 -- -- 97
2019-12-08 14:00:00 12.4 7 Noroeste 15 Norte 0 -- -- 89
2019-12-08 13:00:00 12.4 3 Sudeste 5 Sudeste 0 -- -- 90
2019-12-08 12:00:00 9.4 0 Calma 2 Noroeste 0 -- -- 100
2019-12-08 11:00:00 7.7 0 Calma 2 Sudeste 0 -- -- 100
2019-12-08 10:00:00 5.6 0 Calma 3 Sur 0 -- -- 100
2019-12-08 09:00:00 3.9 0 Calma 0 Calma 0 -- -- 100
2019-12-08 08:00:00 2.8 0 Calma 2 Sur 0 -- -- 100
2019-12-08 07:00:00 1.4 0 Calma 2 Sudoeste 0 -- -- 100
2019-12-08 06:00:00 -0.3 0 Calma 4 Sudoeste 0 -- -- 100
2019-12-08 05:00:00 -1.1 2 Sur 4 Sur 0 -- -- 100
2019-12-08 04:00:00 -1.3 2 Sur 3 Sur 0 -- -- 100
2019-12-08 03:00:00 -1.2 2 Sudoeste 4 Sur 0 -- -- 100
2019-12-08 02:00:00 -1.1 2 Sudoeste 3 Sudoeste 0 -- -- 99
2019-12-08 01:00:00 -0.6 3 Sur 3 Sur 0 -- -- 99
2019-12-08 00:00:00 -0.1 2 Sur 4 Sudoeste 0 -- -- 100
2019-12-07 23:00:00 0.3 2 Sur 3 Sur 0 -- -- 98
2019-12-07 22:00:00 1 2 Sur 4 Sur 0 -- -- 97
2019-12-07 21:00:00 2.1 0 Calma 3 Sur 0 -- -- 96
2019-12-07 20:00:00 3.3 0 Calma 5 Sur 0 -- -- 93
2019-12-07 19:00:00 5.9 2 Sur 4 Sur 0 -- -- 88
2019-12-07 18:00:00 10.1 0 Calma 14 Norte 0 -- -- 75
2019-12-07 17:00:00 13.5 6 Norte 12 Oeste 0 -- -- 61
2019-12-07 16:00:00 13.7 5 Norte 13 Noroeste 0 -- -- 58
2019-12-07 15:00:00 13.4 4 Noroeste 15 Noroeste 0 -- -- 58
2019-12-07 14:00:00 13.3 4 Norte 13 Sudoeste 0 -- -- 66
2019-12-07 13:00:00 12.7 5 Sudoeste 12 Sudoeste 0 -- -- 69
2019-12-07 12:00:00 10.8 3 Sudoeste 8 Sudoeste 0 -- -- 76
2019-12-07 11:00:00 6.9 0 Calma 2 Sur 0 -- -- 100
2019-12-07 10:00:00 2 0 Calma 2 Sur 0 -- -- 100
2019-12-07 09:00:00 -0.6 0 Calma 4 Sur 0 -- -- 100
2019-12-07 08:00:00 -1.1 0 Calma 4 Sudoeste 0 -- -- 100
2019-12-07 07:00:00 -1.9 0 Calma 3 Sudoeste 0 -- -- 100
2019-12-07 06:00:00 -2 0 Calma 3 Sudoeste 0 -- -- 100
2019-12-07 05:00:00 -1.7 0 Calma 3 Sudoeste 0 -- -- 100
2019-12-07 04:00:00 -1.4 0 Calma 4 Sur 0 -- -- 100
2019-12-07 03:00:00 -1.1 2 Sudoeste 3 Sur 0 -- -- 100
2019-12-07 02:00:00 -0.5 2 Sur 3 Sur 0 -- -- 100
2019-12-07 01:00:00 0.1 0 Calma 3 Sudoeste 0 -- -- 100
2019-12-07 00:00:00 0.4 0 Calma 3 Sur 0 -- -- 100
2019-12-06 23:00:00 -0.3 0 Calma 5 Sur 0 -- -- 100
2019-12-06 22:00:00 -0.9 2 Sur 4 Sur 0 -- -- 99
2019-12-06 21:00:00 -0.3 2 Sudoeste 5 Sur 0 -- -- 97
2019-12-06 20:00:00 0.8 2 Sur 4 Sur 0 -- -- 95
2019-12-06 19:00:00 2.7 3 Sudoeste 4 Sur 0 -- -- 92
2019-12-06 18:00:00 6.8 0 Calma 9 Norte 0 -- -- 84
2019-12-06 17:00:00 8.8 3 Norte 9 Norte 0 -- -- 78
2019-12-06 16:00:00 10.6 4 Norte 10 Norte 0 -- -- 72
2019-12-06 15:00:00 10.6 4 Norte 14 Noroeste 0 -- -- 73
2019-12-06 14:00:00 10.3 6 Norte 12 Norte 0 -- -- 77
2019-12-06 13:00:00 9.5 4 Norte 9 Norte 0 -- -- 82
2019-12-06 12:00:00 6.9 3 Norte 8 Nordeste 0 -- -- 94
2019-12-06 11:00:00 3.9 0 Calma 4 Nordeste 0 -- -- 100
2019-12-06 10:00:00 1.2 0 Calma 6 Sur 0 -- -- 100
2019-12-06 09:00:00 0 0 Calma 3 Sur 0 -- -- 100
2019-12-06 08:00:00 -0.8 0 Calma 3 Sur 0 -- -- 100
2019-12-06 07:00:00 -2.2 0 Calma 2 Sur 0 -- -- 100
2019-12-06 06:00:00 -3 0 Calma 2 Sur 0 -- -- 100
2019-12-06 05:00:00 -2.8 0 Calma 3 Sur 0 -- -- 100
2019-12-06 04:00:00 -2.5 0 Calma 3 Sudoeste 0 -- -- 100
2019-12-06 03:00:00 -2.4 0 Calma 2 Sur 0 -- -- 100
2019-12-06 02:00:00 -2.1 0 Calma 3 Sur 0 -- -- 100
2019-12-06 01:00:00 -1.9 0 Calma 3 Sur 0 -- -- 100
2019-12-06 00:00:00 -1.3 0 Calma 3 Sudoeste 0 -- -- 99
2019-12-05 23:00:00 -1.2 2 Sur 3 Sur 0 -- -- 99
2019-12-05 22:00:00 -0.5 0 Calma 3 Sur 0 -- -- 98
2019-12-05 21:00:00 0.6 0 Calma 4 Sudoeste 0 -- -- 98
2019-12-05 20:00:00 1.9 0 Calma 4 Sur 0 -- -- 93
2019-12-05 19:00:00 5.2 0 Calma 11 Norte 0 -- -- 88
2019-12-05 18:00:00 7.3 3 Norte 19 Norte 0 -- -- 81
2019-12-05 17:00:00 8.8 6 Norte 21 Norte 0 -- -- 77
2019-12-05 16:00:00 9.4 10 Norte 23 Norte 0 -- -- 76
2019-12-05 15:00:00 9.4 7 Norte 18 Norte 0 -- -- 75
2019-12-05 14:00:00 8.9 6 Norte 18 Norte 0 -- -- 76
2019-12-05 13:00:00 8.5 8 Norte 22 Norte 0 -- -- 78
2019-12-05 12:00:00 7.6 6 Norte 15 Norte 0 -- -- 82
2019-12-05 11:00:00 6 3 Nordeste 13 Noroeste 0 -- -- 92
2019-12-05 10:00:00 2.9 0 Calma 6 Sudeste 0 -- -- 100
2019-12-05 09:00:00 1.6 0 Calma 14 Norte 0 -- -- 98
2019-12-05 08:00:00 3 7 Norte 19 Norte 0 -- -- 99
2019-12-05 07:00:00 1.3 8 Norte 14 Noroeste 0 -- -- 100
2019-12-05 06:00:00 1 0 Calma 7 Noroeste 0 -- -- 99
2019-12-05 05:00:00 2 4 Noroeste 15 Noroeste 0 -- -- 97
2019-12-05 04:00:00 1.9 0 Calma 6 Sur 0 -- -- 100
2019-12-05 03:00:00 2.1 0 Calma 6 Norte 0 -- -- 100
2019-12-05 02:00:00 1.5 0 Calma 4 Sur 0 -- -- 100
2019-12-05 01:00:00 -0.2 0 Calma 4 Sudoeste 0 -- -- 100
2019-12-05 00:00:00 -0.4 0 Calma 5 Sur 0 -- -- 100
2019-12-04 23:00:00 0.3 0 Calma 3 Sur 0 -- -- 98
2019-12-04 22:00:00 1.9 0 Calma 8 Norte 0 -- -- 96
2019-12-04 21:00:00 3.5 0 Calma 8 Noroeste 0 -- -- 96
2019-12-04 20:00:00 3.5 2 Nordeste 7 Norte 0 -- -- 96
2019-12-04 19:00:00 3.8 0 Calma 7 Norte 0 -- -- 93
2019-12-04 18:00:00 4.8 4 Norte 21 Norte 0 -- -- 88
2019-12-04 17:00:00 6.1 8 Norte 21 Norte 0 -- -- 81
2019-12-04 16:00:00 7.3 7 Norte 25 Norte 0 -- -- 76
2019-12-04 15:00:00 6.7 9 Norte 19 Norte 0 -- -- 81
2019-12-04 14:00:00 4.1 4 Norte 13 Norte 0 -- -- 90
2019-12-04 13:00:00 2.3 3 Norte 10 Norte 0 -- -- 98
2019-12-04 12:00:00 2.7 5 Norte 12 Norte 0 -- -- 95
2019-12-04 11:00:00 2.1 0 Calma 4 Noroeste 0 -- -- 100
2019-12-04 10:00:00 -0.7 0 Calma 3 Norte 0 -- -- 100
2019-12-04 09:00:00 -2.7 0 Calma 4 Sudoeste 0 -- -- 100
2019-12-04 08:00:00 -3 0 Calma 4 Sur 0 -- -- 100
2019-12-04 07:00:00 -2.3 0 Calma 6 Sur 0 -- -- 100
2019-12-04 06:00:00 -1.8 0 Calma 3 Sur 0 -- -- 100
2019-12-04 05:00:00 -1.1 0 Calma 2 Sur 0 -- -- 100
2019-12-04 04:00:00 -1.3 0 Calma 4 Sudoeste 0 -- -- 100
2019-12-04 03:00:00 -2.2 0 Calma 4 Sur 0 -- -- 100
2019-12-04 02:00:00 -2.4 0 Calma 3 Sur 0 -- -- 100
2019-12-04 01:00:00 -1.8 0 Calma 5 Sudeste 0 -- -- 100
2019-12-04 00:00:00 -1.8 0 Calma 4 Sudeste 0 -- -- 100
2019-12-03 23:00:00 -1.4 2 Sur 5 Sudeste 0 -- -- 100
2019-12-03 22:00:00 -1.2 0 Calma 3 Sur 0 -- -- 99
2019-12-03 21:00:00 -2.1 0 Calma 4 Sur 0 -- -- 97
2019-12-03 20:00:00 -1.2 0 Calma 4 Sur 0 -- -- 95
2019-12-03 19:00:00 0.5 0 Calma 4 Sur 0 -- -- 90
2019-12-03 18:00:00 4 0 Calma 8 Norte 0 -- -- 82
2019-12-03 17:00:00 5.9 4 Norte 13 Norte 0 -- -- 74
2019-12-03 16:00:00 6.2 5 Norte 14 Norte 0 -- -- 72
2019-12-03 15:00:00 5.8 6 Norte 13 Norte 0 -- -- 75
2019-12-03 14:00:00 5 5 Norte 18 Norte 0 -- -- 79
2019-12-03 13:00:00 3.9 4 Nordeste 10 Norte 0 -- -- 86
2019-12-03 12:00:00 1.5 0 Calma 9 Norte 0 -- -- 95
2019-12-03 11:00:00 0.2 2 Norte 9 Norte 0 -- -- 100
2019-12-03 10:00:00 -0.5 3 Noroeste 6 Oeste 0 -- -- 100
2019-12-03 09:00:00 -0.6 2 Norte 9 Norte 0 -- -- 100
2019-12-03 08:00:00 -1.3 0 Calma 6 Noroeste 0 -- -- 100
2019-12-03 07:00:00 -1.8 0 Calma 2 Sudoeste 0 -- -- 99
2019-12-03 06:00:00 -1.4 0 Calma 2 Sudoeste 0 -- -- 98
2019-12-03 05:00:00 -0.6 0 Calma 4 Noroeste 0 -- -- 97
2019-12-03 04:00:00 0.4 3 Noroeste 9 Oeste 0 -- -- 97
2019-12-03 03:00:00 0.1 3 Noroeste 5 Norte 0 -- -- 100
2019-12-03 02:00:00 -1 0 Calma 7 Sur 0 -- -- 98
2019-12-03 01:00:00 0 2 Este 6 Sur 0 -- -- 99
2019-12-03 00:00:00 1.2 0 Calma 5 Sur 0 -- -- 97
2019-12-02 23:00:00 2.3 0 Calma 9 Nordeste 0 -- -- 92
2019-12-02 22:00:00 4.1 2 Norte 15 Norte 0 -- -- 89
2019-12-02 21:00:00 4.6 3 Norte 17 Norte 0 -- -- 89
2019-12-02 20:00:00 4.5 4 Norte 16 Norte 0 -- -- 90
2019-12-02 19:00:00 5.4 2 Norte 14 Nordeste 0 -- -- 85
2019-12-02 18:00:00 6.9 4 Norte 22 Norte 0 -- -- 77
2019-12-02 17:00:00 7.8 9 Norte 34 Norte 0 -- -- 72
2019-12-02 16:00:00 8.4 11 Norte 35 Nordeste 0 -- -- 71
2019-12-02 15:00:00 8.9 7 Nordeste 30 Nordeste 0 -- -- 68
2019-12-02 14:00:00 7.7 12 Nordeste 37 Norte 0 -- -- 72
2019-12-02 13:00:00 7 8 Nordeste 36 Norte 0 -- -- 80
2019-12-02 12:00:00 6.7 11 Nordeste 32 Norte 0 -- -- 83
2019-12-02 11:00:00 5.7 8 Norte 31 Norte 0 -- -- 87
2019-12-02 10:00:00 4.3 8 Norte 30 Noroeste 0 -- -- 93
2019-12-02 09:00:00 3.8 5 Nordeste 29 Nordeste 0 -- -- 96
2019-12-02 08:00:00 3.6 6 Norte 28 Norte 0 -- -- 96
2019-12-02 07:00:00 3.8 8 Norte 29 Norte 0 -- -- 95
2019-12-02 06:00:00 4.2 9 Norte 26 Norte 0 -- -- 94
2019-12-02 05:00:00 4.7 10 Norte 29 Norte 0 -- -- 94
2019-12-02 04:00:00 4.7 9 Norte 26 Norte 0 -- -- 95
2019-12-02 03:00:00 4.6 7 Norte 26 Norte 0 -- -- 97
2019-12-02 02:00:00 4.4 10 Norte 31 Norte 0 -- -- 99
2019-12-02 01:00:00 4.8 12 Norte 29 Nordeste 0 -- -- 100
2019-12-02 00:00:00 4.9 12 Norte 24 Norte 0 -- -- 100
2019-12-01 23:00:00 5.2 7 Norte 26 Norte 0 -- -- 99
2019-12-01 22:00:00 5.3 10 Norte 26 Norte 0 -- -- 100
2019-12-01 21:00:00 5.9 9 Norte 28 Noroeste 0 -- -- 100
2019-12-01 20:00:00 6.3 7 Norte 24 Norte 0 -- -- 100
2019-12-01 19:00:00 6.6 7 Norte 22 Norte 0 -- -- 100
2019-12-01 18:00:00 6.6 6 Norte 21 Norte 0 -- -- 99
2019-12-01 17:00:00 6.7 8 Norte 18 Norte 0 -- -- 99
2019-12-01 16:00:00 6.8 5 Norte 15 Norte 0 -- -- 95
2019-12-01 15:00:00 7.6 0 Calma 6 Sudoeste 0 -- -- 90
2019-12-01 14:00:00 7.4 3 Sur 9 Sudoeste 0 -- -- 93
2019-12-01 13:00:00 8.4 3 Sur 10 Sur 0 -- -- 90
2019-12-01 12:00:00 8.1 5 Sudeste 12 Sudoeste 0 -- -- 91
2019-12-01 11:00:00 7.3 5 Sur 15 Sur 0 -- -- 98
2019-12-01 10:00:00 7.4 7 Sur 12 Sur 0 -- -- 100
2019-12-01 09:00:00 6.5 5 Sur 10 Sudoeste 0 -- -- 100
2019-12-01 08:00:00 6.6 3 Sudoeste 12 Sur 0 -- -- 100
2019-12-01 07:00:00 6.8 9 Sudoeste 31 Sur 0 -- -- 100
2019-12-01 06:00:00 6.6 9 Sur 27 Sur 0 -- -- 100
2019-12-01 05:00:00 6.3 11 Sudoeste 37 Sur 0 -- -- 100
2019-12-01 04:00:00 6.3 14 Sudoeste 28 Sudoeste 0 -- -- 100
2019-12-01 03:00:00 6.1 12 Sudoeste 30 Sur 0 -- -- 100
2019-12-01 02:00:00 5.7 8 Sudoeste 22 Sur 0 -- -- 100
2019-12-01 01:00:00 1 0 Calma 7 Sur 0 -- -- 100
2019-12-01 00:00:00 0.8 0 Calma 5 Sur 0 -- -- 100
2019-11-30 23:00:00 0.9 0 Calma 5 Sur 0 -- -- 100
2019-11-30 22:00:00 1.3 4 Sudoeste 7 Sur 0 -- -- 100
2019-11-30 21:00:00 2.9 3 Sudoeste 6 Sur 0 -- -- 100
2019-11-30 20:00:00 4.5 3 Sudeste 6 Sudeste 0 -- -- 99
2019-11-30 19:00:00 6.7 2 Noroeste 16 Oeste 0 -- -- 94
2019-11-30 18:00:00 8 3 Noroeste 20 Noroeste 0 -- -- 95
2019-11-30 17:00:00 9.6 11 Noroeste 21 Noroeste 0 -- -- 94
2019-11-30 16:00:00 11.2 5 Sudoeste 29 Oeste 0 -- -- 93
2019-11-30 15:00:00 11.4 11 Sudoeste 40 Sudoeste 0 -- -- 93
2019-11-30 14:00:00 11.5 17 Sudoeste 39 Sur 0 -- -- 100
2019-11-30 13:00:00 11.8 13 Sudoeste 32 Sudoeste 0 -- -- 100
2019-11-30 12:00:00 11.4 19 Sudoeste 35 Sur 0 -- -- 100
2019-11-30 11:00:00 11.1 17 Sur 33 Sudoeste 0 -- -- 100
2019-11-30 10:00:00 10.6 19 Sur 35 Sudoeste 0 -- -- 100
2019-11-30 09:00:00 10.5 17 Sur 32 Sudoeste 0 -- -- 100
2019-11-30 08:00:00 10.6 14 Sur 28 Sur 0 -- -- 100
2019-11-30 07:00:00 10.6 15 Sur 31 Sudoeste 0 -- -- 100
2019-11-30 06:00:00 10.6 13 Sudoeste 28 Sudoeste 0 -- -- 100
2019-11-30 05:00:00 10.5 13 Sur 28 Sur 0 -- -- 100
2019-11-30 04:00:00 10.6 10 Sur 27 Sur 0 -- -- 100
2019-11-30 03:00:00 10.7 12 Sudoeste 23 Sur 0 -- -- 100
2019-11-30 02:00:00 11 7 Sudoeste 24 Sudoeste 0 -- -- 100
2019-11-30 01:00:00 11.3 9 Sudoeste 22 Sudoeste 0 -- -- 100
2019-11-30 00:00:00 11.4 8 Sudoeste 24 Sur 0 -- -- 100
2019-11-29 23:00:00 11.6 7 Sudoeste 19 Sudoeste 0 -- -- 100
2019-11-29 22:00:00 11.8 6 Sudoeste 21 Sudoeste 0 -- -- 100
2019-11-29 21:00:00 11.8 10 Sudoeste 25 Sudoeste 0 -- -- 100
2019-11-29 20:00:00 11.9 10 Sudoeste 24 Sudoeste 0 -- -- 99
2019-11-29 19:00:00 12.1 13 Sur 23 Sur 0 -- -- 99
2019-11-29 18:00:00 12 9 Sudoeste 22 Sudoeste 0 -- -- 99
2019-11-29 17:00:00 12.3 12 Sudoeste 24 Sudoeste 0 -- -- 99
2019-11-29 16:00:00 12.9 8 Sudoeste 14 Sudoeste 0 -- -- 97
2019-11-29 15:00:00 13.5 8 Sur 14 Sur 0 -- -- 95
2019-11-29 14:00:00 13.4 6 Sudoeste 13 Sudoeste 0 -- -- 93
2019-11-29 13:00:00 12.9 6 Sudoeste 15 Sur 0 -- -- 96
2019-11-29 12:00:00 12.2 6 Sudoeste 18 Sur 0 -- -- 100
2019-11-29 11:00:00 11.7 7 Sudoeste 17 Sudoeste 0 -- -- 100
2019-11-29 10:00:00 11.1 8 Sudoeste 21 Sudoeste 0.4 -- -- 100
2019-11-29 09:00:00 11.1 13 Sudoeste 23 Sudoeste 0.2 -- -- 100
2019-11-29 08:00:00 11.1 8 Sudoeste 23 Sur 0 -- -- 100
2019-11-29 07:00:00 11.1 9 Sur 25 Sudoeste 0.2 -- -- 100
2019-11-29 06:00:00 11.1 9 Sur 22 Sur 0 -- -- 100
2019-11-29 05:00:00 11.2 9 Sur 19 Sur 0.2 -- -- 100
2019-11-29 04:00:00 11.1 9 Sur 24 Sur 0 -- -- 100
2019-11-29 03:00:00 10.9 12 Sudoeste 33 Sudoeste 0.2 -- -- 100
2019-11-29 02:00:00 10.7 17 Sudoeste 37 Sudoeste 0 -- -- 100
2019-11-29 01:00:00 10.6 19 Sudoeste 37 Sur 0 -- -- 100
2019-11-29 00:00:00 10.6 17 Sudoeste 41 Sudoeste 0 -- -- 100
2019-11-28 23:00:00 10.5 19 Sudoeste 41 Sudoeste 0 -- -- 100
2019-11-28 22:00:00 10.5 15 Sudoeste 39 Sur 0.2 -- -- 100
2019-11-28 21:00:00 10.6 15 Sudoeste 33 Sudoeste 0 -- -- 99
2019-11-28 20:00:00 10.4 13 Sudoeste 35 Sudoeste 0 -- -- 99
2019-11-28 19:00:00 10.7 19 Sudoeste 37 Sudoeste 0 -- -- 94
2019-11-28 18:00:00 10.8 10 Sudoeste 31 Sur 0 -- -- 96
2019-11-28 17:00:00 10.8 9 Sudoeste 28 Sur 0 -- -- 95
2019-11-28 16:00:00 10.9 12 Sudoeste 31 Sudoeste 0 -- -- 94
2019-11-28 15:00:00 10.6 13 Sudoeste 31 Sudoeste 0 -- -- 93
2019-11-28 14:00:00 10.3 16 Sudoeste 36 Sur 0.2 -- -- 100
2019-11-28 13:00:00 10 12 Sudoeste 28 Sudoeste 0 -- -- 100
2019-11-28 12:00:00 9.3 12 Sudoeste 24 Sur 0 -- -- 100
2019-11-28 11:00:00 9 10 Sur 22 Sudoeste 0.2 -- -- 100
2019-11-28 10:00:00 8.8 10 Sur 28 Sur 0 -- -- 100
2019-11-28 09:00:00 8.6 10 Sur 27 Sur 0.2 -- -- 100
2019-11-28 08:00:00 8.5 9 Sur 20 Sur 0.2 -- -- 100
2019-11-28 07:00:00 8.5 7 Sur 22 Sur 0 -- -- 100
2019-11-28 06:00:00 8.4 7 Sur 28 Sur 0 -- -- 100
2019-11-28 05:00:00 8.3 5 Sur 20 Sur 0 -- -- 100
2019-11-28 04:00:00 8.3 6 Sur 27 Sudoeste 0 -- -- 100
2019-11-28 03:00:00 8.2 9 Sudoeste 25 Sur 0 -- -- 100
2019-11-28 02:00:00 8.1 13 Sudoeste 26 Sudoeste 0 -- -- 100
2019-11-28 01:00:00 8.1 9 Sudoeste 22 Sudoeste 0 -- -- 100
2019-11-28 00:00:00 7.9 8 Sudoeste 26 Sudoeste 0 -- -- 97
2019-11-27 23:00:00 7.9 9 Sudoeste 21 Sudoeste 0 -- -- 96
2019-11-27 22:00:00 7.9 12 Sudoeste 21 Sur 0 -- -- 96
2019-11-27 21:00:00 7.7 8 Sudoeste 15 Sudoeste 0 -- -- 94
2019-11-27 20:00:00 8.1 9 Sudoeste 22 Sudoeste 0 -- -- 92
2019-11-27 19:00:00 8.5 10 Sudoeste 22 Sudoeste 0 -- -- 93
2019-11-27 18:00:00 8.9 6 Sudoeste 22 Sudoeste 0 -- -- 93
2019-11-27 17:00:00 9.3 8 Sudoeste 20 Sur 0 -- -- 93
2019-11-27 16:00:00 9.6 7 Sudoeste 24 Sur 0 -- -- 93
2019-11-27 15:00:00 9.6 9 Sudoeste 22 Sudoeste 0 -- -- 93
2019-11-27 14:00:00 10.6 13 Sudoeste 23 Sudoeste 0 -- -- 88
2019-11-27 06:00:00 -- -- -- -- -- -- -- -- --
2019-11-27 05:00:00 -- -- -- -- -- -- -- -- --
2019-11-27 04:00:00 -- -- -- -- -- -- -- -- --
2019-11-27 03:00:00 6.8 2 Sudeste 10 Oeste 0 -- -- 95
2019-11-27 02:00:00 8 0 Calma 11 Oeste 0 -- -- 97
2019-11-27 01:00:00 9 3 Oeste 12 Oeste 0 -- -- 95
2019-11-27 00:00:00 9.2 5 Sudoeste 15 Oeste 0 -- -- 96
2019-11-26 23:00:00 9.8 5 Oeste 18 Sudoeste 0 -- -- 96
2019-11-26 22:00:00 10.2 7 Sudoeste 23 Sudoeste 2 -- -- 95
2019-11-26 21:00:00 10.4 16 Sudoeste 33 Sudoeste 0.4 -- -- 99
2019-11-26 20:00:00 10.7 18 Sudoeste 42 Sudoeste 0 -- -- 96
2019-11-26 19:00:00 11.4 13 Sudoeste 47 Sudoeste 0 -- -- 93
2019-11-26 18:00:00 11.9 17 Sudoeste 42 Sudoeste 0 -- -- 92
2019-11-26 17:00:00 12.3 14 Sudoeste 40 Sudoeste 1 -- -- 100
2019-11-26 16:00:00 12.3 20 Sur 40 Sur 4.2 -- -- 100
2019-11-26 15:00:00 12.4 18 Sur 41 Sudoeste 3.6 -- -- 99
2019-11-26 14:00:00 12 26 Sur 49 Sur 5.6 -- -- 100
2019-11-26 13:00:00 12 21 Sur 43 Sudoeste 3 -- -- 99
2019-11-26 12:00:00 11.9 21 Sur 41 Sudoeste 4.6 -- -- 99
2019-11-26 11:00:00 11.8 18 Sur 32 Sur 3.4 -- -- 99
2019-11-26 10:00:00 11.8 16 Sur 32 Sur 1.6 -- -- 99
2019-11-26 09:00:00 11.5 15 Sur 35 Sur 2.2 -- -- 99
2019-11-26 08:00:00 11.1 20 Sur 35 Sudoeste 0 -- -- 99
2019-11-26 07:00:00 11 15 Sur 28 Sudoeste 0.2 -- -- 100
2019-11-26 06:00:00 10.9 13 Sur 26 Sur 0.2 -- -- 100
2019-11-26 05:00:00 10.5 12 Sur 24 Sur 0.2 -- -- 99
2019-11-26 04:00:00 10.6 8 Sur 22 Sur 0 -- -- 99
2019-11-26 03:00:00 10.3 9 Sur 20 Sur 0 -- -- 98
2019-11-26 02:00:00 10.2 8 Sur 20 Sur 0 -- -- 98
2019-11-26 01:00:00 9.8 7 Sur 21 Sur 0 -- -- 94
2019-11-26 00:00:00 9.4 10 Sur 22 Sur 0 -- -- 95
2019-11-25 23:00:00 9.6 10 Sur 20 Sudoeste 0 -- -- 95
2019-11-25 22:00:00 10.2 8 Sudoeste 18 Sudoeste 0 -- -- 98
2019-11-25 21:00:00 8.5 2 Sur 12 Sur 0 -- -- 99
2019-11-25 20:00:00 8.4 0 Calma 3 Sur 0 -- -- 96
2019-11-25 19:00:00 10.1 0 Calma 18 Sudoeste 0 -- -- 91
2019-11-25 18:00:00 11.2 8 Sudoeste 21 Sudoeste 0 -- -- 89
2019-11-25 17:00:00 12.2 6 Sudoeste 15 Sudoeste 0 -- -- 84
2019-11-25 16:00:00 12.7 6 Sudoeste 17 Sudoeste 0 -- -- 85
2019-11-25 15:00:00 13.7 8 Sudoeste 18 Sudoeste 0 -- -- 81
2019-11-25 14:00:00 13.4 9 Sudoeste 20 Sudoeste 0 -- -- 85
2019-11-25 13:00:00 12.7 6 Sudoeste 15 Sudoeste 0 -- -- 84
2019-11-25 12:00:00 11.9 7 Sur 18 Sur 0 -- -- 93
2019-11-25 11:00:00 11.2 3 Sudoeste 10 Sudoeste 0 -- -- 98
2019-11-25 10:00:00 9.7 3 Sudoeste 13 Sudoeste 0 -- -- 100
2019-11-25 09:00:00 7.2 4 Sudoeste 10 Sudoeste 0 -- -- 100
2019-11-25 08:00:00 8.1 3 Sur 15 Oeste 0 -- -- 95
2019-11-25 07:00:00 10.3 4 Oeste 12 Noroeste 0 -- -- 97
2019-11-25 06:00:00 10.4 5 Noroeste 17 Oeste 0 -- -- 96
2019-11-25 05:00:00 10.4 8 Noroeste 24 Oeste 0 -- -- 92
2019-11-25 04:00:00 10.5 5 Oeste 24 Oeste 0 -- -- 95
2019-11-25 03:00:00 10.2 6 Sudoeste 18 Sudoeste 0 -- -- 100
2019-11-25 02:00:00 9.8 4 Sudoeste 23 Sudoeste 0.6 -- -- 100
2019-11-25 01:00:00 9.5 11 Sur 26 Sudoeste 0.4 -- -- 100
2019-11-25 00:00:00 9.3 12 Sur 25 Sudoeste 0.4 -- -- 99
2019-11-24 23:00:00 9.2 12 Sur 27 Sur 0.4 -- -- 98
2019-11-24 22:00:00 8.8 10 Sur 26 Sur 0.2 -- -- 99
2019-11-24 21:00:00 8.4 8 Sur 30 Sudoeste 0.2 -- -- 100
2019-11-24 20:00:00 8.2 16 Sur 28 Sur 0 -- -- 100
2019-11-24 19:00:00 8 11 Sur 24 Sudoeste 0 -- -- 100
2019-11-24 18:00:00 7.9 10 Sudoeste 25 Sur 0 -- -- 100
2019-11-24 17:00:00 7.9 8 Sur 21 Sur 0 -- -- 98
2019-11-24 16:00:00 7.8 8 Sur 24 Sudoeste 0 -- -- 96
2019-11-24 15:00:00 8.7 8 Sudoeste 23 Sur 0 -- -- 88
2019-11-24 14:00:00 8 6 Sudoeste 17 Sur 0 -- -- 90
2019-11-24 13:00:00 8.4 10 Sudoeste 20 Sudoeste 0 -- -- 84
2019-11-24 12:00:00 8.2 8 Sudoeste 18 Sudoeste 0 -- -- 88
2019-11-24 11:00:00 6.1 5 Sudoeste 15 Sudoeste 0 -- -- 91
2019-11-24 10:00:00 1.2 0 Calma 3 Sur 0 -- -- 100
2019-11-24 09:00:00 -0.9 0 Calma 3 Sudoeste 0 -- -- 100
2019-11-24 08:00:00 -2 0 Calma 3 Sur 0 -- -- 100
2019-11-24 07:00:00 -1.9 0 Calma 2 Sudoeste 0 -- -- 100
2019-11-24 06:00:00 -1.7 0 Calma 3 Sur 0 -- -- 100
2019-11-24 05:00:00 -1.6 0 Calma 2 Sur 0 -- -- 99
2019-11-24 04:00:00 -1.3 0 Calma 2 Sur 0 -- -- 98
2019-11-24 03:00:00 0 0 Calma 4 Este 0 -- -- 97
2019-11-24 02:00:00 1.5 0 Calma 4 Este 0 -- -- 95
2019-11-24 01:00:00 4.2 2 Nordeste 17 Oeste 0 -- -- 90
2019-11-24 00:00:00 4.6 0 Calma 17 Noroeste 0 -- -- 91
2019-11-23 23:00:00 5.2 8 Noroeste 22 Noroeste 0 -- -- 89
2019-11-23 22:00:00 5.3 6 Noroeste 18 Noroeste 0 -- -- 91
2019-11-23 21:00:00 4.9 0 Calma 11 Noroeste 0 -- -- 92
2019-11-23 20:00:00 5.5 2 Noroeste 12 Oeste 0 -- -- 89
2019-11-23 19:00:00 6.1 3 Noroeste 8 Oeste 0 -- -- 86
2019-11-23 18:00:00 7.1 4 Oeste 22 Noroeste 0 -- -- 81
2019-11-23 17:00:00 8 12 Noroeste 28 Norte 0 -- -- 70
2019-11-23 16:00:00 9.3 9 Noroeste 31 Oeste 0 -- -- 68
2019-11-23 15:00:00 8.6 15 Noroeste 38 Noroeste 0 -- -- 70
2019-11-23 14:00:00 8.3 18 Noroeste 36 Noroeste 0 -- -- 72
2019-11-23 13:00:00 8.4 18 Noroeste 35 Norte 0 -- -- 73
2019-11-23 12:00:00 7.5 21 Noroeste 44 Noroeste 0 -- -- 78
2019-11-23 11:00:00 6.5 19 Noroeste 40 Norte 0 -- -- 80
2019-11-23 10:00:00 5.5 12 Noroeste 26 Noroeste 0 -- -- 88
2019-11-23 09:00:00 4.7 12 Noroeste 25 Noroeste 0 -- -- 88
2019-11-23 08:00:00 4.3 10 Noroeste 24 Noroeste 0 -- -- 88
2019-11-23 07:00:00 4.1 6 Norte 34 Oeste 0 -- -- 87
2019-11-23 06:00:00 4.2 10 Noroeste 33 Oeste 0 -- -- 88
2019-11-23 05:00:00 4.3 14 Noroeste 40 Oeste 0 -- -- 89
2019-11-23 04:00:00 4.5 15 Noroeste 35 Oeste 0 -- -- 88
2019-11-23 03:00:00 5.3 17 Noroeste 41 Oeste 0 -- -- 87
2019-11-23 02:00:00 5.5 16 Oeste 30 Oeste 0 -- -- 88
2019-11-23 01:00:00 5.1 10 Noroeste 35 Noroeste 0.6 -- -- 92
2019-11-23 00:00:00 6.3 18 Noroeste 50 Oeste 0.4 -- -- 89
2019-11-22 23:00:00 6.7 17 Oeste 32 Oeste 1.2 -- -- 91
2019-11-22 22:00:00 7.1 7 Sudoeste 33 Sudoeste 0 -- -- 91
2019-11-22 21:00:00 7.7 9 Sudoeste 35 Sudoeste 0 -- -- 92
2019-11-22 20:00:00 7.6 10 Sudoeste 33 Sudoeste 0 -- -- 87
2019-11-22 19:00:00 7.5 6 Sudoeste 27 Sudoeste 0 -- -- 88
2019-11-22 18:00:00 8.7 13 Sudoeste 38 Sudoeste 0 -- -- 87
2019-11-22 17:00:00 9.6 9 Sudoeste 29 Sur 0 -- -- 85
2019-11-22 16:00:00 10.2 14 Sudoeste 41 Sudoeste 0 -- -- 82
2019-11-22 15:00:00 10.8 12 Sudoeste 33 Oeste 0 -- -- 88
2019-11-22 14:00:00 11.1 12 Sudoeste 31 Sudoeste 0.6 -- -- 88
2019-11-22 13:00:00 10.7 13 Sudoeste 41 Sudoeste 0.6 -- -- 95
2019-11-22 12:00:00 10.4 18 Sur 40 Sur 2.8 -- -- 100
2019-11-22 11:00:00 9.5 17 Sur 45 Sur 4.2 -- -- 99
2019-11-22 10:00:00 9.1 25 Sur 53 Sur 4 -- -- 99
2019-11-22 09:00:00 8.7 21 Sur 43 Sur 4.8 -- -- 99
2019-11-22 08:00:00 8.4 22 Sur 43 Sur 3.8 -- -- 99
2019-11-22 07:00:00 7.8 20 Sur 41 Sur 4.2 -- -- 100
2019-11-22 06:00:00 7.4 16 Sur 37 Sur 4 -- -- 99
2019-11-22 05:00:00 7.1 17 Sur 43 Sudoeste 3.2 -- -- 100
2019-11-22 04:00:00 7.2 15 Sur 37 Sudoeste 2.2 -- -- 99
2019-11-22 03:00:00 7.2 19 Sudoeste 35 Sudoeste 0.8 -- -- 97
2019-11-22 02:00:00 7.3 14 Sur 37 Sudoeste 0.4 -- -- 99
2019-11-22 01:00:00 7.4 8 Sur 32 Sur 0.2 -- -- 99
2019-11-22 00:00:00 7.3 10 Sur 20 Sudeste 0 -- -- 97
2019-11-21 23:00:00 7.3 8 Sur 20 Sur 0 -- -- 96
2019-11-21 22:00:00 7.2 8 Sur 23 Sudoeste 0 -- -- 97
2019-11-21 21:00:00 7.3 9 Sur 22 Sur 0 -- -- 98
2019-11-21 20:00:00 6.8 8 Sur 16 Sur 0.6 -- -- 100
2019-11-21 19:00:00 6 0 Calma 5 Sudoeste 0.6 -- -- 99
2019-11-21 18:00:00 6.2 2 Sur 6 Sur 0 -- -- 92
2019-11-21 17:00:00 8 5 Sur 18 Sur 0 -- -- 88
2019-11-21 16:00:00 9.8 7 Sudoeste 19 Sudoeste 0 -- -- 81
2019-11-21 15:00:00 9.7 6 Sudoeste 16 Sudoeste 0 -- -- 83
2019-11-21 14:00:00 8.3 6 Sudoeste 18 Sur 0 -- -- 89
2019-11-21 13:00:00 8.1 8 Sur 17 Sur 0 -- -- 91
2019-11-21 12:00:00 7.6 6 Sudoeste 12 Sur 0 -- -- 93
2019-11-21 11:00:00 7.3 4 Sudoeste 10 Sudoeste 0 -- -- 97
2019-11-21 10:00:00 6.6 6 Sur 13 Sur 0 -- -- 100
2019-11-21 09:00:00 6.3 5 Sur 13 Sudoeste 0 -- -- 100
2019-11-21 08:00:00 6.1 3 Sudoeste 18 Sur 0 -- -- 100
2019-11-21 07:00:00 6.1 6 Sudoeste 25 Sudoeste 0 -- -- 100
2019-11-21 06:00:00 6 7 Sudoeste 23 Sur 0.4 -- -- 100
2019-11-21 05:00:00 5.9 9 Sur 29 Sudoeste 0.4 -- -- 99
2019-11-21 04:00:00 5.4 4 Sudoeste 12 Sur 0.8 -- -- 100
2019-11-21 03:00:00 5.3 5 Sur 16 Sudoeste 0 -- -- 100
2019-11-21 02:00:00 5.2 7 Sudoeste 20 Sur 0 -- -- 100
2019-11-21 01:00:00 4.9 6 Sur 18 Sur 0.2 -- -- 99
2019-11-21 00:00:00 4.9 6 Sur 13 Sur 0 -- -- 99
2019-11-20 23:00:00 4.9 6 Sur 14 Sur 0 -- -- 99
2019-11-20 22:00:00 4.7 4 Sudeste 13 Sur 0 -- -- 98
2019-11-20 21:00:00 4.7 3 Sur 17 Sur 0 -- -- 99
2019-11-20 20:00:00 4.8 5 Sur 15 Sur 0 -- -- 97
2019-11-20 19:00:00 5 5 Sudeste 15 Sur 0 -- -- 99
2019-11-20 18:00:00 5.3 5 Sudeste 13 Sudeste 0 -- -- 97
2019-11-20 17:00:00 5.7 5 Sur 17 Sur 0 -- -- 98
2019-11-20 16:00:00 5.9 7 Sur 15 Sur 0 -- -- 99
2019-11-20 15:00:00 5.5 8 Sur 16 Sur 0.2 -- -- 100
2019-11-20 14:00:00 4.6 6 Sudeste 25 Sur 0 -- -- 100
2019-11-20 13:00:00 4.3 7 Sudeste 29 Sur 0 -- -- 100
2019-11-20 12:00:00 4.2 14 Sur 30 Sur 0.2 -- -- 100
2019-11-20 11:00:00 4.3 9 Sudeste 25 Sudeste 0 -- -- 98
2019-11-20 10:00:00 4.2 10 Sudeste 22 Sudeste 0 -- -- 98
2019-11-20 09:00:00 3.3 0 Calma 9 Sudeste 0.8 -- -- 98
2019-11-20 08:00:00 4 2 Sudeste 14 Sudeste 3 -- -- 96
2019-11-20 07:00:00 4.4 0 Calma 4 Norte 1.6 -- -- 100
2019-11-20 06:00:00 4.4 0 Calma 9 Sudeste 0.8 -- -- 98
2019-11-20 05:00:00 4.5 4 Sudeste 12 Sur 0.2 -- -- 97
2019-11-20 04:00:00 4.8 5 Sur 10 Sur 0 -- -- 96
2019-11-20 03:00:00 5 3 Sudoeste 12 Sur 0 -- -- 96
2019-11-20 02:00:00 5.1 3 Sudeste 12 Sur 0 -- -- 96
2019-11-20 01:00:00 4.9 4 Sudeste 14 Sur 0.2 -- -- 95
2019-11-20 00:00:00 5.4 7 Sur 15 Sur 0 -- -- 89
2019-11-19 23:00:00 5.6 6 Sur 15 Sur 0 -- -- 83
2019-11-19 22:00:00 5.5 0 Calma 12 Sudeste 0 -- -- 87
2019-11-19 21:00:00 5.6 0 Calma 8 Sudeste 0 -- -- 79
2019-11-19 20:00:00 5.5 0 Calma 9 Sudoeste 0 -- -- 84
2019-11-19 19:00:00 5.8 3 Oeste 9 Sudoeste 0 -- -- 81
2019-11-19 18:00:00 6.4 0 Calma 8 Oeste 0 -- -- 80
2019-11-19 17:00:00 7 3 Sudoeste 15 Oeste 0 -- -- 75
2019-11-19 16:00:00 7.5 3 Sudoeste 11 Sudeste 0 -- -- 70
2019-11-19 15:00:00 7.6 4 Sur 18 Oeste 0 -- -- 68
2019-11-19 14:00:00 8.7 5 Sur 15 Sur 0 -- -- 65
2019-11-19 13:00:00 7.8 5 Sudoeste 15 Oeste 0 -- -- 70
2019-11-19 12:00:00 6.9 8 Sur 13 Sur 0 -- -- 75
2019-11-19 11:00:00 3.2 0 Calma 3 Sudoeste 0 -- -- 100
2019-11-19 10:00:00 -0.7 0 Calma 3 Sudoeste 0 -- -- 100
2019-11-19 09:00:00 -2.6 0 Calma 2 Sudoeste 0 -- -- 100
2019-11-19 08:00:00 -3.7 0 Calma 2 Sudoeste 0 -- -- 100
2019-11-19 07:00:00 -4.5 0 Calma 2 Sur 0 -- -- 100
2019-11-19 06:00:00 -4.3 0 Calma 3 Sur 0 -- -- 99
2019-11-19 05:00:00 -3.9 0 Calma 2 Sur 0 -- -- 99
2019-11-19 04:00:00 -3.7 0 Calma 3 Sur 0 -- -- 99
2019-11-19 03:00:00 -3.6 0 Calma 3 Sur 0 -- -- 99
2019-11-19 02:00:00 -3.4 2 Sudoeste 3 Sudoeste 0 -- -- 98
2019-11-19 01:00:00 -2.7 0 Calma 2 Sur 0 -- -- 98
2019-11-19 00:00:00 -2.6 0 Calma 3 Sudoeste 0 -- -- 98
2019-11-18 23:00:00 -2 2 Sur 3 Sur 0 -- -- 97
2019-11-18 22:00:00 -1.5 0 Calma 4 Sur 0 -- -- 97
2019-11-18 21:00:00 -0.8 0 Calma 4 Sur 0 -- -- 95
2019-11-18 20:00:00 0.4 2 Sur 4 Sur 0 -- -- 92
2019-11-18 19:00:00 2.8 0 Calma 3 Sur 0 -- -- 86
2019-11-18 18:00:00 6.7 0 Calma 11 Noroeste 0 -- -- 76
2019-11-18 17:00:00 8.7 6 Norte 16 Noroeste 0 -- -- 67
2019-11-18 16:00:00 9.2 5 Norte 15 Norte 0 -- -- 63
2019-11-18 15:00:00 9 3 Este 16 Norte 0 -- -- 64
2019-11-18 14:00:00 8.4 4 Este 21 Noroeste 0 -- -- 71
2019-11-18 13:00:00 7.2 8 Norte 21 Norte 0 -- -- 78
2019-11-18 12:00:00 5.9 6 Norte 17 Norte 0 -- -- 85
2019-11-18 11:00:00 3.7 5 Noroeste 18 Norte 0 -- -- 94
2019-11-18 10:00:00 2.5 0 Calma 5 Nordeste 0 -- -- 100
2019-11-18 09:00:00 -0.1 0 Calma 4 Norte 0 -- -- 100
2019-11-18 08:00:00 0.7 0 Calma 6 Norte 0 -- -- 98
2019-11-18 07:00:00 2.3 0 Calma 10 Norte 0 -- -- 99
2019-11-18 06:00:00 1.8 4 Noroeste 9 Norte 0 -- -- 100
2019-11-18 05:00:00 2 2 Noroeste 8 Noroeste 0 -- -- 98
2019-11-18 04:00:00 2.6 4 Norte 19 Noroeste 0 -- -- 97
2019-11-18 03:00:00 2.8 5 Norte 17 Norte 0 -- -- 97
2019-11-18 02:00:00 2.8 8 Norte 17 Norte 0 -- -- 97
2019-11-18 01:00:00 2.8 5 Norte 21 Noroeste 0 -- -- 97
2019-11-18 00:00:00 3.2 6 Norte 18 Noroeste 0 -- -- 96
2019-11-17 23:00:00 3.7 3 Norte 20 Norte 0 -- -- 94
2019-11-17 22:00:00 4.2 7 Norte 23 Noroeste 0 -- -- 93
2019-11-17 21:00:00 5 7 Norte 25 Noroeste 0 -- -- 93
2019-11-17 20:00:00 6.9 14 Noroeste 29 Oeste 0 -- -- 90
2019-11-17 19:00:00 8.1 9 Noroeste 19 Noroeste 0.2 -- -- 96
2019-11-17 18:00:00 8.8 4 Noroeste 17 Noroeste 0 -- -- 93
2019-11-17 17:00:00 8.9 6 Sudoeste 17 Oeste 0.6 -- -- 96
2019-11-17 16:00:00 8.6 6 Oeste 13 Sudoeste 0.2 -- -- 96
2019-11-17 15:00:00 8.9 5 Sudoeste 18 Sudoeste 0.2 -- -- 96
2019-11-17 14:00:00 9.1 9 Sudoeste 20 Noroeste 0 -- -- 92
2019-11-17 13:00:00 10.5 6 Sudoeste 19 Sur 0 -- -- 89
2019-11-17 12:00:00 8.8 5 Sudoeste 12 Sur 0 -- -- 96
2019-11-17 11:00:00 8.4 5 Sudoeste 13 Oeste 0 -- -- 98
2019-11-17 10:00:00 5.7 7 Sudoeste 18 Sudoeste 0 -- -- 100
2019-11-17 09:00:00 5.1 4 Sudoeste 13 Oeste 0 -- -- 99
2019-11-17 08:00:00 5.2 2 Sudoeste 17 Sur 0 -- -- 99
2019-11-17 07:00:00 4.6 4 Oeste 12 Oeste 0 -- -- 100
2019-11-17 06:00:00 4.1 3 Sudoeste 14 Oeste 0 -- -- 99
2019-11-17 05:00:00 3.8 4 Sur 17 Sudoeste 0 -- -- 96
2019-11-17 04:00:00 3.6 4 Sudoeste 17 Sudoeste 0 -- -- 97
2019-11-17 03:00:00 3.4 6 Sudoeste 16 Oeste 0 -- -- 97
2019-11-17 02:00:00 0.2 0 Calma 6 Oeste 0 -- -- 99
2019-11-17 01:00:00 -0.4 0 Calma 2 Sur 0 -- -- 97
2019-11-17 00:00:00 -0.7 0 Calma 2 Sur 0 -- -- 96
2019-11-16 23:00:00 -0.6 2 Sur 3 Sur 0 -- -- 92
2019-11-16 22:00:00 1 0 Calma 4 Sudeste 0 -- -- 88
2019-11-16 21:00:00 3 0 Calma 2 Oeste 0 -- -- 83
2019-11-16 20:00:00 4.3 2 Noroeste 10 Noroeste 0 -- -- 77
2019-11-16 19:00:00 4.7 3 Norte 14 Noroeste 0 -- -- 75
2019-11-16 18:00:00 5.4 8 Noroeste 22 Noroeste 0 -- -- 68
2019-11-16 17:00:00 6.7 8 Noroeste 24 Noroeste 0 -- -- 61
2019-11-16 16:00:00 6.7 5 Noroeste 18 Noroeste 0 -- -- 68
2019-11-16 15:00:00 6.4 8 Noroeste 17 Noroeste 0 -- -- 71
2019-11-16 14:00:00 6.5 9 Noroeste 22 Noroeste 0 -- -- 70
2019-11-16 13:00:00 5.9 7 Noroeste 17 Noroeste 0 -- -- 74
2019-11-16 12:00:00 3.4 5 Noroeste 13 Noroeste 0 -- -- 88
2019-11-16 11:00:00 2 3 Noroeste 10 Noroeste 0 -- -- 93
2019-11-16 10:00:00 0.9 0 Calma 3 Oeste 0 -- -- 96
2019-11-16 09:00:00 -0.1 0 Calma 3 Sudeste 0 -- -- 99
2019-11-16 08:00:00 -0.6 0 Calma 2 Sudeste 0 -- -- 100
2019-11-16 07:00:00 -1 0 Calma 2 Sur 0 -- -- 100
2019-11-16 06:00:00 -1.6 0 Calma 3 Nordeste 0 -- -- 98
2019-11-16 05:00:00 -1.3 0 Calma 6 Norte 0 -- -- 95
2019-11-16 04:00:00 -0.6 0 Calma 8 Nordeste 0 -- -- 95
2019-11-16 03:00:00 0.3 4 Norte 13 Noroeste 0 -- -- 93
2019-11-16 02:00:00 0.8 0 Calma 11 Noroeste 0 -- -- 92
2019-11-16 01:00:00 1 3 Norte 18 Noroeste 0 -- -- 91
2019-11-16 00:00:00 1.1 5 Noroeste 13 Noroeste 0 -- -- 91
2019-11-15 23:00:00 1.1 7 Noroeste 16 Noroeste 0 -- -- 91
2019-11-15 22:00:00 1.2 6 Norte 17 Noroeste 0 -- -- 88
2019-11-15 21:00:00 1.2 7 Noroeste 14 Noroeste 0 -- -- 87
2019-11-15 20:00:00 1.7 3 Norte 10 Noroeste 0 -- -- 83
2019-11-15 19:00:00 3 6 Norte 22 Norte 0 -- -- 76
2019-11-15 18:00:00 3.5 6 Norte 32 Noroeste 0 -- -- 72
2019-11-15 17:00:00 4.8 16 Norte 32 Norte 0 -- -- 65
2019-11-15 16:00:00 5.4 14 Noroeste 40 Noroeste 0 -- -- 64
2019-11-15 15:00:00 5.8 14 Norte 34 Norte 0 -- -- 61
2019-11-15 14:00:00 5.8 15 Norte 40 Noroeste 0 -- -- 62
2019-11-15 13:00:00 5.1 13 Norte 34 Norte 0 -- -- 66
2019-11-15 12:00:00 4.1 15 Norte 32 Norte 0 -- -- 74
2019-11-15 11:00:00 2.7 17 Norte 36 Noroeste 0 -- -- 82
2019-11-15 10:00:00 1.9 12 Noroeste 31 Noroeste 0 -- -- 87
2019-11-15 09:00:00 1.2 12 Norte 26 Norte 0 -- -- 89
2019-11-15 08:00:00 0.9 10 Norte 30 Noroeste 0 -- -- 89
2019-11-15 07:00:00 0.7 8 Noroeste 28 Noroeste 0 -- -- 89
2019-11-15 06:00:00 0.8 11 Norte 24 Noroeste 0 -- -- 89
2019-11-15 05:00:00 0.7 7 Norte 20 Noroeste 0 -- -- 88
2019-11-15 04:00:00 1.1 6 Noroeste 24 Noroeste 0 -- -- 87
2019-11-15 03:00:00 1.6 10 Noroeste 21 Noroeste 0 -- -- 86
2019-11-15 02:00:00 1.6 10 Noroeste 24 Noroeste 0 -- -- 85
2019-11-15 01:00:00 2 11 Noroeste 26 Norte 0 -- -- 84
2019-11-15 00:00:00 2.3 11 Noroeste 24 Noroeste 0 -- -- 87